Time;durP1;ratioP1;P1;durP2;ratioP2;P2;SDS_P1;SDS_P2;PMS_P1;PMS_P2;Temp;Humidity;BMP_temperature;BMP_pressure;BME280_temperature;BME280_humidity;BME280_pressure;Samples;Min_cycle;Max_cycle;Signal;HPM_P1;HPM_P2
2022/03/30 00:09:13;;;;;;;19.00;5.00;;;13.10;81.10;;;;;;20665979;28;20082;-55
2022/03/30 00:19:15;;;;;;;15.68;4.57;;;13.10;81.10;;;;;;20665482;28;20047;-57
2022/03/30 00:29:16;;;;;;;26.58;6.13;;;13.00;80.40;;;;;;20665301;28;20055;-57
2022/03/30 00:39:19;;;;;;;33.70;5.45;;;13.00;79.70;;;;;;20665116;28;20069;-57
2022/03/30 00:49:20;;;;;;;33.50;6.22;;;13.00;78.00;;;;;;20664646;28;20498;-54
2022/03/30 00:59:21;;;;;;;24.95;5.13;;;13.00;76.90;;;;;;20672086;28;20054;-56
2022/03/30 01:09:24;;;;;;;22.95;5.05;;;12.90;76.80;;;;;;20678855;28;20061;-55
2022/03/30 01:19:29;;;;;;;27.02;6.22;;;12.90;75.60;;;;;;20677423;28;20132;-55
2022/03/30 01:39:57;;;;;;;26.00;5.47;;;12.80;75.00;;;;;;20676921;28;20084;-58
2022/03/30 01:50:02;;;;;;;16.77;4.43;;;12.70;75.00;;;;;;20675056;28;20096;-56
2022/03/30 02:00:17;;;;;;;20.23;4.60;;;12.70;75.10;;;;;;20674808;28;20054;-56
2022/03/30 02:10:24;;;;;;;17.85;4.38;;;12.70;74.60;;;;;;20673486;28;20222;-56
2022/03/30 02:20:26;;;;;;;14.55;4.10;;;12.70;74.30;;;;;;20673189;28;20046;-57
2022/03/30 02:30:31;;;;;;;12.77;3.67;;;12.70;76.10;;;;;;20671976;28;20062;-58
2022/03/30 02:40:37;;;;;;;12.73;4.50;;;12.60;77.20;;;;;;20671825;28;20050;-57
2022/03/30 02:50:44;;;;;;;11.30;3.22;;;12.60;78.10;;;;;;20670327;28;20050;-58
2022/03/30 03:00:46;;;;;;;9.10;2.90;;;12.50;78.80;;;;;;20669342;28;20042;-56
2022/03/30 03:11:07;;;;;;;11.88;2.97;;;12.50;79.30;;;;;;20668710;28;20050;-56
2022/03/30 03:21:14;;;;;;;11.00;3.33;;;12.50;79.70;;;;;;20668125;28;20047;-56
2022/03/30 03:31:20;;;;;;;20.73;4.35;;;12.40;79.50;;;;;;20681899;28;20064;-56
2022/03/30 03:41:23;;;;;;;12.38;3.55;;;12.50;78.80;;;;;;20668019;28;20457;-55
2022/03/30 03:51:26;;;;;;;11.60;3.28;;;12.50;78.80;;;;;;20669426;28;20077;-56
2022/03/30 04:01:29;;;;;;;8.13;2.72;;;12.50;79.00;;;;;;20666175;28;20100;-55
2022/03/30 04:11:33;;;;;;;6.93;2.15;;;12.50;78.90;;;;;;20667121;28;20447;-55
2022/03/30 04:21:36;;;;;;;6.70;2.10;;;12.50;78.70;;;;;;20666443;28;20137;-57
2022/03/30 04:31:40;;;;;;;7.18;2.50;;;12.40;78.80;;;;;;20668303;28;20065;-56
2022/03/30 04:41:43;;;;;;;6.95;2.05;;;12.40;79.20;;;;;;20680705;28;20054;-56
2022/03/30 04:51:53;;;;;;;13.73;2.90;;;12.30;79.50;;;;;;20681763;28;20054;-58
2022/03/30 05:01:57;;;;;;;16.38;3.40;;;12.30;79.40;;;;;;20679848;28;20069;-57
2022/03/30 05:12:02;;;;;;;15.90;3.67;;;12.30;79.40;;;;;;20678547;28;20061;-57
2022/03/30 05:22:06;;;;;;;13.10;3.80;;;12.30;78.70;;;;;;20677710;28;20058;-61
2022/03/30 05:32:09;;;;;;;10.02;3.10;;;12.40;77.00;;;;;;20676272;28;20197;-57
2022/03/30 05:42:14;;;;;;;11.70;3.03;;;12.40;76.60;;;;;;20674383;28;20054;-57
2022/03/30 05:52:18;;;;;;;15.65;3.92;;;12.50;76.80;;;;;;20675348;28;20051;-57
2022/03/30 06:02:21;;;;;;;15.10;3.67;;;12.40;75.80;;;;;;20674678;28;20050;-57
2022/03/30 06:12:26;;;;;;;14.15;3.88;;;12.40;75.20;;;;;;20673701;28;20054;-56
2022/03/30 06:22:30;;;;;;;17.95;5.00;;;12.40;74.80;;;;;;20673118;28;20141;-57
2022/03/30 06:32:35;;;;;;;10.43;3.10;;;12.40;74.60;;;;;;20673003;28;20050;-58
2022/03/30 06:42:38;;;;;;;10.70;3.00;;;12.50;75.30;;;;;;20671214;28;20050;-57
2022/03/30 06:52:42;;;;;;;14.13;3.95;;;12.50;76.20;;;;;;20669636;28;20058;-56
2022/03/30 07:02:44;;;;;;;8.20;2.95;;;12.50;76.50;;;;;;20669697;28;20113;-56
2022/03/30 07:12:50;;;;;;;11.35;3.05;;;12.60;76.40;;;;;;20669320;28;20141;-56
2022/03/30 07:22:54;;;;;;;9.77;3.10;;;12.60;76.10;;;;;;20666859;28;20402;-57
2022/03/30 07:32:57;;;;;;;9.13;3.28;;;12.70;76.10;;;;;;20668371;28;20502;-56
2022/03/30 07:43:00;;;;;;;14.10;3.80;;;12.70;76.40;;;;;;20667856;28;20054;-57
2022/03/30 07:53:03;;;;;;;15.10;4.47;;;12.50;77.80;;;;;;20666580;28;20537;-56
2022/03/30 08:03:05;;;;;;;22.85;4.40;;;12.40;78.60;;;;;;20666235;28;20046;-57
2022/03/30 08:13:10;;;;;;;13.57;3.65;;;12.40;78.00;;;;;;20681484;28;20390;-56
2022/03/30 08:23:12;;;;;;;19.33;4.07;;;12.20;77.70;;;;;;20682780;28;20521;-58
2022/03/30 08:33:16;;;;;;;12.85;3.33;;;12.20;78.50;;;;;;20682063;28;20410;-57
2022/03/30 08:43:18;;;;;;;13.20;2.58;;;12.10;78.00;;;;;;20680521;28;20104;-60
2022/03/30 08:53:24;;;;;;;12.30;3.03;;;12.00;78.10;;;;;;20679861;28;20471;-59
2022/03/30 09:03:25;;;;;;;19.15;2.78;;;12.10;77.00;;;;;;20677565;28;20502;-60
2022/03/30 09:13:27;;;;;;;14.73;3.60;;;12.30;77.00;;;;;;20679554;28;20057;-61
2022/03/30 09:23:29;;;;;;;16.02;4.05;;;12.50;75.90;;;;;;20677437;28;20133;-65
2022/03/30 09:33:32;;;;;;;17.90;3.85;;;12.30;76.50;;;;;;20677915;28;20054;-64
2022/03/30 09:43:35;;;;;;;14.43;3.10;;;12.40;76.20;;;;;;20675780;28;20490;-62
2022/03/30 09:53:38;;;;;;;14.65;4.88;;;12.50;75.40;;;;;;20674808;28;20113;-63
2022/03/30 10:03:48;;;;;;;13.95;3.75;;;12.50;74.80;;;;;;20673781;28;20093;-60
2022/03/30 10:13:54;;;;;;;14.93;3.35;;;12.60;74.20;;;;;;20673377;28;20515;-66
2022/03/30 10:24:05;;;;;;;19.88;4.53;;;12.70;73.50;;;;;;20670854;28;20058;-60
2022/03/30 10:34:24;;;;;;;17.30;4.07;;;12.80;73.10;;;;;;20671646;28;20100;-63
2022/03/30 10:44:46;;;;;;;18.92;5.20;;;12.80;71.70;;;;;;20670616;28;20054;-64
2022/03/30 10:54:50;;;;;;;17.90;5.25;;;12.90;72.10;;;;;;20670366;28;20050;-60
2022/03/30 11:05:11;;;;;;;23.85;5.65;;;13.10;71.30;;;;;;20670678;28;20069;-62
2022/03/30 11:15:13;;;;;;;20.73;4.90;;;13.20;70.90;;;;;;20670586;28;20372;-57
2022/03/30 11:25:20;;;;;;;10.15;4.05;;;13.80;69.20;;;;;;20667604;28;20050;-55
2022/03/30 11:35:25;;;;;;;17.65;4.72;;;13.40;69.20;;;;;;20665774;28;20046;-58
2022/03/30 11:45:29;;;;;;;17.10;5.25;;;13.30;67.90;;;;;;20665778;28;20527;-57
2022/03/30 11:55:35;;;;;;;19.27;5.22;;;13.40;66.70;;;;;;20666158;28;20101;-57
2022/03/30 12:05:37;;;;;;;22.20;5.75;;;13.40;66.30;;;;;;20667381;28;20403;-59
2022/03/30 12:15:39;;;;;;;26.30;5.25;;;13.40;65.90;;;;;;20665755;28;20093;-58
2022/03/30 12:25:41;;;;;;;20.08;5.60;;;13.40;65.10;;;;;;20665538;28;20058;-59
2022/03/30 12:35:43;;;;;;;14.80;4.63;;;13.50;67.20;;;;;;20665914;28;20074;-58
2022/03/30 12:45:53;;;;;;;23.13;5.03;;;13.50;68.30;;;;;;20663983;28;20142;-57
2022/03/30 12:55:55;;;;;;;14.50;4.78;;;13.40;68.70;;;;;;20672770;28;20054;-57
2022/03/30 13:06:19;;;;;;;20.05;5.10;;;13.30;69.00;;;;;;20678740;28;20128;-58
2022/03/30 13:16:22;;;;;;;15.77;5.15;;;13.40;68.70;;;;;;20678526;28;20131;-58
2022/03/30 13:26:28;;;;;;;18.17;5.40;;;13.50;68.40;;;;;;20675523;28;20058;-57
2022/03/30 13:36:30;;;;;;;27.83;5.32;;;13.70;68.00;;;;;;20675574;28;20051;-59
2022/03/30 13:46:33;;;;;;;17.67;5.15;;;13.70;67.20;;;;;;20675474;28;20113;-58
2022/03/30 13:56:35;;;;;;;19.00;4.63;;;13.70;67.00;;;;;;20675919;28;20046;-60
2022/03/30 14:06:37;;;;;;;16.42;4.18;;;13.60;66.80;;;;;;20675481;28;20050;-59
2022/03/30 14:16:38;;;;;;;8.05;3.10;;;13.70;66.10;;;;;;20674727;28;20046;-57
2022/03/30 14:26:41;;;;;;;8.85;2.97;;;13.90;64.80;;;;;;20672363;28;20097;-59
2022/03/30 14:36:43;;;;;;;10.45;2.58;;;14.10;63.40;;;;;;20672878;28;20466;-58
2022/03/30 14:46:48;;;;;;;5.70;1.80;;;14.20;62.30;;;;;;20669128;28;20051;-59
2022/03/30 14:56:49;;;;;;;8.30;2.65;;;14.20;62.00;;;;;;20670359;28;20050;-58
2022/03/30 15:06:51;;;;;;;9.35;2.20;;;14.20;61.70;;;;;;20667810;28;20393;-58
2022/03/30 15:16:53;;;;;;;6.88;2.10;;;14.30;61.10;;;;;;20669328;28;20494;-58
2022/03/30 15:26:56;;;;;;;7.25;2.25;;;14.20;61.00;;;;;;20667943;28;20058;-58
2022/03/30 15:36:58;;;;;;;10.07;2.10;;;14.20;60.80;;;;;;20668711;28;20050;-59
2022/03/30 15:46:59;;;;;;;2.53;0.80;;;14.10;60.90;;;;;;20667573;28;20058;-58
2022/03/30 15:57:01;;;;;;;3.15;0.90;;;13.80;60.20;;;;;;20667029;28;20141;-56
2022/03/30 16:07:04;;;;;;;2.08;1.00;;;14.10;59.50;;;;;;20668079;28;20050;-57
2022/03/30 16:17:07;;;;;;;1.17;0.32;;;14.40;59.20;;;;;;20665076;28;20051;-59
2022/03/30 16:27:09;;;;;;;2.65;0.70;;;14.50;58.80;;;;;;20666966;28;20061;-56
2022/03/30 16:37:11;;;;;;;1.50;0.80;;;14.30;59.30;;;;;;20680738;28;20057;-60
2022/03/30 16:47:12;;;;;;;1.98;0.80;;;14.00;59.90;;;;;;20680118;28;20133;-59
2022/03/30 16:57:14;;;;;;;3.22;0.85;;;14.20;59.20;;;;;;20679430;28;20078;-60
2022/03/30 17:07:15;;;;;;;2.72;0.80;;;14.50;58.50;;;;;;20680393;28;20153;-60
2022/03/30 17:17:19;;;;;;;2.25;0.98;;;14.60;57.60;;;;;;20679639;28;20042;-58
2022/03/30 17:27:22;;;;;;;5.15;0.88;;;14.50;58.10;;;;;;20678436;28;20486;-59
2022/03/30 17:37:24;;;;;;;1.80;0.50;;;14.20;58.70;;;;;;20677712;28;20395;-65
2022/03/30 17:47:27;;;;;;;3.40;0.40;;;14.00;58.70;;;;;;20673213;28;20470;-61
2022/03/30 17:57:28;;;;;;;1.33;0.47;;;14.00;58.10;;;;;;20674829;28;20529;-62
2022/03/30 18:07:29;;;;;;;4.75;0.70;;;13.90;58.10;;;;;;20672970;28;20133;-62
2022/03/30 18:17:31;;;;;;;3.13;0.90;;;14.00;58.10;;;;;;20686662;28;20283;-61
2022/03/30 18:27:35;;;;;;;3.47;1.30;;;14.10;58.00;;;;;;20668861;28;20066;-61
2022/03/30 18:37:37;;;;;;;7.07;1.55;;;13.80;58.70;;;;;;20671350;28;20050;-65
2022/03/30 18:47:38;;;;;;;7.32;2.03;;;13.80;58.60;;;;;;20669505;28;20085;-59
2022/03/30 18:57:41;;;;;;;6.30;1.75;;;13.70;58.90;;;;;;20670137;28;20085;-57
2022/03/30 19:07:43;;;;;;;7.63;2.10;;;13.70;59.20;;;;;;20664814;28;20050;-66
2022/03/30 19:17:45;;;;;;;11.00;2.25;;;13.60;60.30;;;;;;20666581;28;20133;-60
2022/03/30 19:27:46;;;;;;;10.80;3.08;;;13.60;60.70;;;;;;20668690;28;20054;-59
2022/03/30 19:37:48;;;;;;;7.55;2.92;;;13.50;61.00;;;;;;20668148;28;20042;-59
2022/03/30 19:47:50;;;;;;;11.23;2.75;;;13.40;61.40;;;;;;20667242;28;20054;-61
2022/03/30 19:57:52;;;;;;;9.05;3.13;;;13.20;60.30;;;;;;20667811;28;20112;-58
2022/03/30 20:07:56;;;;;;;11.88;2.65;;;13.10;59.60;;;;;;20667316;28;20355;-60
2022/03/30 20:17:59;;;;;;;13.43;3.53;;;12.90;59.50;;;;;;20666465;28;20062;-60
2022/03/30 20:28:01;;;;;;;11.80;3.67;;;12.90;59.50;;;;;;20666757;28;20054;-59
2022/03/30 20:38:02;;;;;;;11.55;4.05;;;12.90;60.80;;;;;;20664176;28;20141;-59
2022/03/30 20:48:08;;;;;;;9.02;3.35;;;12.90;61.90;;;;;;20664674;28;20105;-59
2022/03/30 20:58:15;;;;;;;9.75;3.05;;;12.90;62.90;;;;;;20664658;28;20053;-60
2022/03/30 21:08:17;;;;;;;10.50;2.95;;;12.90;63.50;;;;;;20663482;28;20122;-63
2022/03/30 21:18:19;;;;;;;6.45;2.50;;;12.80;65.40;;;;;;20673546;28;20054;-60
2022/03/30 21:28:21;;;;;;;7.65;2.70;;;12.60;66.60;;;;;;20677311;28;20058;-62
2022/03/30 21:38:22;;;;;;;7.85;3.15;;;12.30;67.50;;;;;;20677041;28;20061;-60
2022/03/30 21:48:26;;;;;;;5.35;2.63;;;12.20;67.70;;;;;;20676000;28;20046;-59
2022/03/30 21:58:27;;;;;;;6.65;2.55;;;12.00;68.30;;;;;;20675122;28;20133;-57
2022/03/30 22:08:29;;;;;;;6.65;2.13;;;11.90;69.20;;;;;;20690284;28;20050;-59
2022/03/30 22:18:32;;;;;;;5.55;2.05;;;11.80;68.80;;;;;;20674676;28;20049;-61
2022/03/30 22:28:33;;;;;;;5.60;1.50;;;11.70;67.90;;;;;;20670852;28;20105;-60
2022/03/30 22:38:35;;;;;;;6.30;1.27;;;11.50;66.80;;;;;;20671512;28;20046;-58
2022/03/30 22:48:37;;;;;;;3.75;1.27;;;11.40;66.20;;;;;;20670974;28;20046;-59
2022/03/30 22:58:38;;;;;;;3.30;1.75;;;11.20;66.30;;;;;;20685018;28;20104;-57
2022/03/30 23:08:42;;;;;;;3.42;1.30;;;10.90;66.90;;;;;;20670816;28;20413;-58
2022/03/30 23:18:44;;;;;;;2.45;1.33;;;11.00;67.00;;;;;;20669715;28;20082;-58
2022/03/30 23:28:46;;;;;;;3.50;1.55;;;10.90;67.30;;;;;;20671480;28;20135;-57
2022/03/30 23:38:48;;;;;;;3.67;1.80;;;10.80;67.70;;;;;;20667127;28;20046;-57
2022/03/30 23:48:49;;;;;;;2.42;1.50;;;10.70;67.30;;;;;;20668058;28;20082;-60
2022/03/30 23:58:50;;;;;;;4.30;1.65;;;10.70;67.30;;;;;;20666300;28;20180;-60
